createdAt,value
2022-10-05T00:00:31.279Z,0.95
2022-10-05T00:02:59.703Z,2.67
2022-10-05T00:05:33.201Z,1.45
2022-10-05T00:08:11.852Z,1.67
2022-10-05T00:10:42.503Z,4.68
2022-10-05T00:13:15.924Z,1.40
2022-10-05T00:15:44.845Z,1.60
2022-10-05T00:18:17.351Z,2.22
2022-10-05T00:20:48.176Z,1.50
2022-10-05T00:23:19.755Z,2.45
2022-10-05T00:25:48.693Z,2.20
2022-10-05T00:28:20.129Z,3.53
2022-10-05T00:30:48.762Z,1.30
2022-10-05T00:33:17.102Z,1.60
2022-10-05T00:35:47.098Z,1.80
2022-10-05T00:38:15.569Z,1.40
2022-10-05T00:40:59.332Z,1.20
2022-10-05T00:43:52.166Z,0.88
2022-10-05T00:46:25.064Z,0.85
2022-10-05T00:49:03.903Z,1.25
2022-10-05T00:51:36.740Z,3.03
2022-10-05T00:54:18.520Z,1.88
2022-10-05T00:57:10.928Z,2.22
2022-10-05T00:59:52.261Z,1.48
2022-10-05T01:02:32.978Z,1.02
2022-10-05T01:05:10.508Z,0.93
2022-10-05T01:07:49.341Z,0.75
2022-10-05T01:10:28.168Z,1.92
2022-10-05T01:13:04.565Z,1.63
2022-10-05T01:15:37.749Z,0.90
2022-10-05T01:18:13.564Z,2.70
2022-10-05T01:20:51.001Z,1.15
2022-10-05T01:24:04.082Z,1.10
2022-10-05T01:26:57.954Z,0.90
2022-10-05T01:29:34.841Z,1.85
2022-10-05T01:32:11.085Z,1.23
2022-10-05T01:34:42.975Z,1.50
2022-10-05T01:37:16.623Z,1.17
2022-10-05T01:39:52.327Z,1.35
2022-10-05T01:42:31.247Z,1.17
2022-10-05T01:45:09.914Z,0.77
2022-10-05T01:47:44.700Z,1.15
2022-10-05T01:50:24.110Z,3.08
2022-10-05T01:53:03.553Z,0.90
2022-10-05T01:55:40.365Z,1.30
2022-10-05T01:58:16.830Z,0.93
2022-10-05T02:00:56.335Z,0.50
2022-10-05T02:03:28.639Z,1.02
2022-10-05T02:06:00.479Z,2.05
2022-10-05T02:08:36.118Z,1.10
2022-10-05T02:11:09.341Z,1.55
2022-10-05T02:13:41.311Z,1.50
2022-10-05T02:16:16.966Z,2.20
2022-10-05T02:18:52.218Z,0.95
2022-10-05T02:21:21.833Z,4.68
2022-10-05T02:23:54.477Z,1.05
2022-10-05T02:26:23.526Z,0.95
2022-10-05T02:28:55.886Z,1.15
2022-10-05T02:31:30.184Z,0.98
2022-10-05T02:34:23.221Z,0.95
2022-10-05T02:36:59.449Z,2.50
2022-10-05T02:39:34.248Z,0.98
2022-10-05T02:42:09.980Z,1.02
2022-10-05T02:44:45.537Z,0.98
2022-10-05T02:47:22.297Z,0.60
2022-10-05T02:49:58.541Z,2.47
2022-10-05T02:52:36.121Z,0.80
2022-10-05T02:55:15.497Z,1.30
2022-10-05T02:57:52.762Z,1.13
2022-10-05T03:00:24.652Z,1.02
2022-10-05T03:03:02.745Z,1.30
2022-10-05T03:05:38.965Z,1.50
2022-10-05T03:08:15.578Z,0.80
2022-10-05T03:10:54.346Z,1.17
2022-10-05T03:13:31.342Z,0.60
2022-10-05T03:16:17.160Z,1.17
2022-10-05T03:19:00.024Z,1.08
2022-10-05T03:21:44.361Z,1.17
2022-10-05T03:24:32.411Z,0.93
2022-10-05T03:27:08.271Z,1.33
2022-10-05T03:29:41.668Z,1.83
2022-10-05T03:32:21.476Z,1.40
2022-10-05T03:34:58.357Z,1.17
2022-10-05T03:37:32.649Z,1.33
2022-10-05T03:40:09.211Z,1.30
2022-10-05T03:42:50.563Z,0.75
2022-10-05T03:45:27.451Z,0.73
2022-10-05T03:48:03.415Z,1.25
2022-10-05T03:50:43.955Z,1.23
2022-10-05T03:53:18.898Z,1.08
2022-10-05T03:55:51.069Z,1.25
2022-10-05T03:58:25.331Z,1.70
2022-10-05T04:00:59.504Z,1.10
2022-10-05T04:03:32.400Z,0.93
2022-10-05T04:06:08.738Z,0.63
2022-10-05T04:08:47.904Z,0.88
2022-10-05T04:11:21.704Z,1.38
2022-10-05T04:13:54.109Z,0.88
2022-10-05T04:16:28.092Z,0.45
2022-10-05T04:19:02.519Z,1.00
2022-10-05T04:21:37.625Z,1.35
2022-10-05T04:24:12.604Z,2.03
2022-10-05T04:26:47.065Z,0.95
2022-10-05T04:29:31.237Z,2.50
2022-10-05T04:32:15.069Z,4.53
2022-10-05T04:35:19.071Z,3.42
2022-10-05T04:37:55.742Z,1.23
2022-10-05T04:40:40.358Z,0.93
2022-10-05T04:43:16.666Z,0.95
2022-10-05T04:45:59.081Z,1.00
2022-10-05T04:48:46.514Z,0.82
2022-10-05T04:51:34.784Z,1.35
2022-10-05T04:54:15.519Z,0.60
2022-10-05T04:56:50.636Z,1.17
2022-10-05T04:59:37.012Z,1.25
2022-10-05T05:02:14.577Z,2.33
2022-10-05T05:05:21.465Z,1.88
2022-10-05T05:07:55.074Z,1.55
2022-10-05T05:10:58.910Z,0.98
2022-10-05T05:14:01.336Z,1.40
2022-10-05T05:16:37.148Z,0.93
2022-10-05T05:19:34.825Z,1.30
2022-10-05T05:22:07.918Z,1.08
2022-10-05T05:24:44.776Z,1.35
2022-10-05T05:27:35.471Z,0.90
2022-10-05T05:30:08.953Z,1.73
2022-10-05T05:32:43.269Z,3.28
2022-10-05T05:35:44.848Z,1.38
2022-10-05T05:38:23.917Z,1.25
2022-10-05T05:41:02.306Z,1.02
2022-10-05T05:43:44.881Z,2.00
2022-10-05T05:46:18.239Z,1.10
2022-10-05T05:48:48.770Z,1.73
2022-10-05T05:51:22.046Z,2.20
2022-10-05T05:53:55.235Z,3.17
2022-10-05T05:56:30.314Z,2.33
2022-10-05T05:59:04.728Z,2.63
2022-10-05T06:01:44.281Z,1.67
2022-10-05T06:04:17.343Z,5.22
2022-10-05T06:06:50.264Z,1.98
2022-10-05T06:09:23.808Z,2.40
2022-10-05T06:11:55.363Z,3.50
2022-10-05T06:14:30.979Z,2.75
2022-10-05T06:17:02.900Z,2.17
2022-10-05T06:19:35.554Z,3.72
2022-10-05T06:22:08.451Z,3.60
2022-10-05T06:24:40.157Z,3.20
2022-10-05T06:29:58.167Z,2.08
2022-10-05T06:32:31.629Z,2.28
2022-10-05T06:35:13.329Z,1.92
2022-10-05T06:38:22.672Z,1.45
2022-10-05T06:41:02.824Z,1.50
2022-10-05T06:43:46.322Z,1.10
2022-10-05T06:46:22.979Z,1.75
2022-10-05T06:49:17.497Z,3.47
2022-10-05T06:51:57.506Z,1.10
2022-10-05T06:54:42.683Z,1.38
2022-10-05T06:57:18.644Z,0.98
2022-10-05T06:59:56.471Z,1.08
2022-10-05T07:02:35.838Z,1.95
2022-10-05T07:05:40.612Z,0.88
2022-10-05T07:08:12.956Z,1.67
2022-10-05T07:10:49.010Z,1.73
2022-10-05T07:13:35.386Z,0.88
2022-10-05T07:16:13.243Z,1.33
2022-10-05T07:18:57.570Z,1.00
2022-10-05T07:21:35.889Z,1.80
2022-10-05T07:24:20.727Z,2.40
2022-10-05T07:26:56.378Z,1.70
2022-10-05T07:29:33.596Z,1.15
2022-10-05T07:32:13.582Z,21.08
2022-10-05T07:34:56.308Z,14.73
2022-10-05T07:37:51.661Z,11.98
2022-10-05T07:40:26.425Z,4.30
2022-10-05T07:43:09.131Z,1.65
2022-10-05T07:45:46.192Z,1.02
2022-10-05T07:48:21.044Z,1.00
2022-10-05T07:51:03.282Z,0.95
2022-10-05T07:53:36.778Z,1.48
2022-10-05T07:56:13.641Z,0.88
2022-10-05T07:58:48.170Z,1.02
2022-10-05T08:01:22.912Z,1.52
2022-10-05T08:03:55.900Z,0.95
2022-10-05T08:06:50.158Z,0.70
2022-10-05T08:09:34.597Z,1.08
2022-10-05T08:12:16.107Z,0.52
2022-10-05T08:14:53.035Z,1.02
2022-10-05T08:17:30.433Z,1.10
2022-10-05T08:20:07.878Z,1.30
2022-10-05T08:22:45.517Z,0.65
2022-10-05T08:25:22.188Z,1.40
2022-10-05T08:27:54.626Z,1.25
2022-10-05T08:30:22.935Z,0.98
2022-10-05T08:32:57.364Z,0.80
2022-10-05T08:35:34.167Z,2.67
2022-10-05T08:38:09.444Z,1.95
2022-10-05T08:41:13.516Z,1.27
2022-10-05T08:44:19.760Z,1.67
2022-10-05T08:47:19.503Z,2.05
2022-10-05T08:50:25.279Z,1.45
2022-10-05T08:53:19.495Z,1.40
2022-10-05T08:56:17.632Z,2.10
2022-10-05T08:59:10.201Z,1.30
2022-10-05T09:01:59.518Z,1.70
2022-10-05T09:04:41.781Z,1.60
2022-10-05T09:07:16.773Z,2.10
2022-10-05T09:10:29.776Z,1.05
2022-10-05T09:13:20.518Z,1.05
2022-10-05T09:16:14.158Z,0.90
2022-10-05T09:19:06.414Z,1.50
2022-10-05T09:21:43.234Z,2.10
2022-10-05T09:24:27.297Z,1.27
2022-10-05T09:27:03.789Z,2.22
2022-10-05T09:30:21.947Z,3.15
2022-10-05T09:33:16.577Z,1.35
2022-10-05T09:36:30.296Z,2.28
2022-10-05T09:39:22.239Z,3.85
2022-10-05T09:42:31.323Z,1.50
2022-10-05T09:45:24.617Z,2.42
2022-10-05T09:48:28.407Z,2.78
2022-10-05T09:51:19.736Z,2.08
2022-10-05T09:54:35.017Z,2.08
2022-10-05T09:57:34.191Z,2.10
2022-10-05T10:00:21.841Z,1.77
2022-10-05T10:03:14.875Z,1.75
2022-10-05T10:06:12.956Z,2.30
2022-10-05T10:09:17.625Z,5.55
2022-10-05T10:12:15.554Z,4.65
2022-10-05T10:15:14.992Z,5.38
2022-10-05T10:18:04.935Z,6.15
2022-10-05T10:20:50.459Z,5.90
2022-10-05T10:23:31.007Z,5.85
2022-10-05T10:28:48.739Z,6.07
2022-10-05T10:31:37.191Z,6.95
2022-10-05T10:34:30.986Z,6.35
2022-10-05T10:37:29.077Z,7.65
2022-10-05T10:40:14.900Z,6.10
2022-10-05T10:42:59.306Z,7.10
2022-10-05T10:45:48.565Z,7.13
2022-10-05T10:48:46.623Z,6.55
2022-10-05T10:51:25.820Z,6.25
2022-10-05T10:54:29.918Z,6.55
2022-10-05T10:57:05.194Z,7.57
2022-10-05T11:00:19.291Z,6.30
2022-10-05T11:03:21.859Z,6.50
2022-10-05T11:06:23.739Z,6.82
2022-10-05T11:09:33.689Z,7.53
2022-10-05T11:12:40.282Z,5.65
2022-10-05T11:15:34.198Z,6.05
2022-10-05T11:18:15.657Z,6.40
2022-10-05T11:21:21.810Z,6.20
2022-10-05T11:24:28.614Z,6.57
2022-10-05T11:27:15.139Z,6.75
2022-10-05T11:30:16.230Z,6.38
2022-10-05T11:33:18.954Z,5.85
2022-10-05T11:36:10.122Z,5.80
2022-10-05T11:39:04.180Z,5.53
2022-10-05T11:42:00.010Z,5.35
2022-10-05T11:45:11.871Z,5.10
2022-10-05T11:47:50.265Z,5.70
2022-10-05T11:50:26.851Z,4.05
2022-10-05T11:52:59.483Z,4.35
2022-10-05T11:55:32.050Z,6.07
2022-10-05T11:58:02.737Z,5.28
2022-10-05T12:00:37.451Z,4.93
2022-10-05T12:03:37.209Z,5.28
2022-10-05T12:06:27.339Z,4.28
2022-10-05T12:09:05.861Z,5.90
2022-10-05T12:11:58.522Z,5.85
2022-10-05T12:14:37.149Z,5.00
2022-10-05T12:17:17.723Z,4.43
2022-10-05T12:19:49.654Z,5.75
2022-10-05T12:22:22.889Z,5.18
2022-10-05T12:25:07.015Z,5.22
2022-10-05T12:27:40.378Z,4.88
2022-10-05T12:30:17.057Z,4.97
2022-10-05T12:33:01.593Z,5.05
2022-10-05T12:35:47.750Z,5.22
2022-10-05T12:38:28.606Z,4.95
2022-10-05T12:41:07.734Z,5.38
2022-10-05T12:43:44.892Z,6.20
2022-10-05T12:46:25.874Z,6.00
2022-10-05T12:49:16.369Z,5.43
2022-10-05T12:51:50.995Z,6.15
2022-10-05T12:54:26.098Z,4.10
2022-10-05T12:56:59.310Z,5.85
2022-10-05T12:59:36.700Z,6.05
2022-10-05T13:02:12.698Z,5.50
2022-10-05T13:04:47.406Z,5.35
2022-10-05T13:07:39.773Z,5.10
2022-10-05T13:10:28.142Z,5.20
2022-10-05T13:13:07.280Z,4.85
2022-10-05T13:15:47.155Z,4.97
2022-10-05T13:18:22.748Z,6.50
2022-10-05T13:21:04.120Z,4.28
2022-10-05T13:23:44.966Z,5.28
2022-10-05T13:26:19.294Z,4.20
2022-10-05T13:28:56.805Z,5.93
2022-10-05T13:31:28.591Z,4.75
2022-10-05T13:34:14.233Z,3.88
2022-10-05T13:36:50.373Z,4.72
2022-10-05T13:39:31.768Z,4.35
2022-10-05T13:42:06.740Z,4.15
2022-10-05T13:44:43.812Z,4.78
2022-10-05T13:47:18.084Z,3.80
2022-10-05T13:49:50.702Z,3.85
2022-10-05T13:52:31.697Z,5.15
2022-10-05T13:55:06.858Z,4.28
2022-10-05T13:57:51.710Z,3.97
2022-10-05T14:00:24.203Z,3.88
2022-10-05T14:02:57.471Z,3.92
2022-10-05T14:05:28.007Z,5.00
2022-10-05T14:07:58.597Z,3.83
2022-10-05T14:10:39.278Z,3.58
2022-10-05T14:13:26.569Z,3.58
2022-10-05T14:16:21.739Z,4.95
2022-10-05T14:18:56.574Z,3.95
2022-10-05T14:21:27.094Z,3.75
2022-10-05T14:23:57.266Z,5.07
2022-10-05T14:29:18.310Z,6.10
2022-10-05T14:31:54.343Z,5.03
2022-10-05T14:34:33.200Z,4.50
2022-10-05T14:37:10.062Z,4.80
2022-10-05T14:39:42.743Z,4.50
2022-10-05T14:42:17.037Z,6.82
2022-10-05T14:44:47.772Z,6.00
2022-10-05T14:47:24.598Z,7.10
2022-10-05T14:50:17.970Z,5.20
2022-10-05T14:53:00.551Z,4.80
2022-10-05T14:55:47.085Z,4.85
2022-10-05T14:58:31.889Z,4.63
2022-10-05T15:01:11.301Z,5.88
2022-10-05T15:03:48.467Z,6.05
2022-10-05T15:06:25.250Z,6.60
2022-10-05T15:09:16.408Z,5.55
2022-10-05T15:11:50.552Z,6.40
2022-10-05T15:14:23.290Z,4.90
2022-10-05T15:17:01.867Z,5.20
2022-10-05T15:19:42.437Z,6.63
2022-10-05T15:24:57.869Z,5.47
2022-10-05T15:27:32.984Z,4.95
2022-10-05T15:30:12.872Z,6.25
2022-10-05T15:32:59.409Z,5.05
2022-10-05T15:35:38.163Z,5.47
2022-10-05T15:38:16.441Z,4.63
2022-10-05T15:40:51.636Z,5.28
2022-10-05T15:43:23.430Z,5.25
2022-10-05T15:46:01.718Z,4.32
2022-10-05T15:48:46.251Z,5.55
2022-10-05T15:51:24.288Z,4.43
2022-10-05T15:54:19.001Z,4.32
2022-10-05T15:56:51.406Z,5.97
2022-10-05T15:59:28.769Z,6.50
2022-10-05T16:02:01.873Z,4.63
2022-10-05T16:04:42.798Z,5.90
2022-10-05T16:07:35.701Z,4.85
2022-10-05T16:10:11.990Z,5.63
2022-10-05T16:12:50.878Z,4.47
2022-10-05T16:15:29.859Z,5.35
2022-10-05T16:18:32.646Z,5.97
2022-10-05T16:21:14.134Z,6.07
2022-10-05T16:23:54.370Z,4.93
2022-10-05T16:26:32.737Z,5.38
2022-10-05T16:29:06.042Z,6.50
2022-10-05T16:31:41.624Z,4.88
2022-10-05T16:34:23.353Z,4.25
2022-10-05T16:37:04.233Z,5.25
2022-10-05T16:39:56.863Z,6.63
2022-10-05T16:42:43.198Z,5.60
2022-10-05T16:45:26.271Z,6.47
2022-10-05T16:48:04.459Z,7.18
2022-10-05T16:50:43.151Z,7.03
2022-10-05T16:53:18.696Z,8.57
2022-10-05T16:55:50.789Z,7.88
2022-10-05T16:58:25.585Z,8.45
2022-10-05T17:01:11.937Z,7.57
2022-10-05T17:03:58.134Z,8.38
2022-10-05T17:06:44.248Z,7.82
2022-10-05T17:09:32.736Z,7.38
2022-10-05T17:12:12.717Z,7.35
2022-10-05T17:14:53.633Z,7.18
2022-10-05T17:17:39.025Z,4.90
2022-10-05T17:20:25.023Z,4.07
2022-10-05T17:22:55.859Z,3.30
2022-10-05T17:25:37.821Z,2.70
2022-10-05T17:28:23.310Z,8.70
2022-10-05T17:31:09.129Z,4.05
2022-10-05T17:34:13.880Z,2.75
2022-10-05T17:36:47.874Z,2.78
2022-10-05T17:39:18.713Z,2.53
2022-10-05T17:41:49.140Z,2.10
2022-10-05T17:44:20.664Z,2.70
2022-10-05T17:49:43.568Z,2.20
2022-10-05T17:52:44.786Z,2.88
2022-10-05T17:55:48.974Z,3.17
2022-10-05T17:59:03.349Z,2.28
2022-10-05T18:01:38.788Z,6.00
2022-10-05T18:04:40.089Z,3.05
2022-10-05T18:07:24.007Z,3.83
2022-10-05T18:10:20.083Z,4.93
2022-10-05T18:12:50.735Z,3.75
2022-10-05T18:15:48.928Z,2.20
2022-10-05T18:18:56.476Z,3.35
2022-10-05T18:21:35.685Z,2.63
2022-10-05T18:24:24.552Z,2.55
2022-10-05T18:27:04.615Z,2.25
2022-10-05T18:30:06.541Z,2.92
2022-10-05T18:35:16.412Z,1.80
2022-10-05T18:37:56.276Z,2.15
2022-10-05T18:40:38.485Z,1.83
2022-10-05T18:43:22.373Z,2.38
2022-10-05T18:46:16.557Z,3.53
2022-10-05T18:48:55.780Z,3.35
2022-10-05T18:51:36.347Z,2.55
2022-10-05T18:54:21.929Z,3.40
2022-10-05T18:56:51.965Z,3.95
2022-10-05T18:59:40.255Z,3.35
2022-10-05T19:02:16.051Z,2.35
2022-10-05T19:05:42.550Z,2.88
2022-10-05T19:08:10.757Z,2.60
2022-10-05T19:10:46.365Z,1.90
2022-10-05T19:13:28.671Z,2.75
2022-10-05T19:16:08.691Z,1.95
2022-10-05T19:19:00.128Z,2.58
2022-10-05T19:21:39.575Z,2.83
2022-10-05T19:24:23.343Z,2.42
2022-10-05T19:27:02.316Z,2.53
2022-10-05T19:29:45.937Z,2.53
2022-10-05T19:32:24.389Z,2.45
2022-10-05T19:35:07.385Z,4.22
2022-10-05T19:37:45.890Z,2.28
2022-10-05T19:40:24.577Z,2.95
2022-10-05T19:43:15.518Z,3.25
2022-10-05T19:45:48.691Z,3.03
2022-10-05T19:48:28.099Z,4.28
2022-10-05T19:50:59.122Z,2.03
2022-10-05T19:53:31.297Z,2.83
2022-10-05T19:56:23.563Z,2.40
2022-10-05T19:59:03.746Z,2.65
2022-10-05T20:01:35.666Z,2.17
2022-10-05T20:04:07.349Z,1.67
2022-10-05T20:06:37.273Z,1.80
2022-10-05T20:09:21.341Z,2.05
2022-10-05T20:11:56.738Z,4.43
2022-10-05T20:14:32.412Z,1.73
2022-10-05T20:17:35.099Z,2.40
2022-10-05T20:20:25.811Z,2.72
2022-10-05T20:22:55.340Z,2.13
2022-10-05T20:25:32.377Z,2.38
2022-10-05T20:28:03.349Z,2.13
2022-10-05T20:30:33.999Z,2.85
2022-10-05T20:33:09.610Z,2.30
2022-10-05T20:35:46.889Z,3.05
2022-10-05T20:38:24.378Z,2.85
2022-10-05T20:40:56.211Z,3.53
2022-10-05T20:43:36.415Z,3.38
2022-10-05T20:49:11.005Z,2.80
2022-10-05T20:51:40.324Z,3.22
2022-10-05T20:54:09.497Z,4.10
2022-10-05T20:56:38.682Z,5.72
2022-10-05T20:59:09.758Z,4.50
2022-10-05T21:01:38.384Z,2.78
2022-10-05T21:04:11.535Z,3.47
2022-10-05T21:06:40.202Z,2.45
2022-10-05T21:09:11.855Z,2.67
2022-10-05T21:14:11.243Z,3.00
2022-10-05T21:16:42.011Z,3.42
2022-10-05T21:19:13.498Z,3.53
2022-10-05T21:21:42.865Z,4.65
2022-10-05T21:24:14.089Z,3.92
2022-10-05T21:26:42.907Z,5.65
2022-10-05T21:29:14.522Z,3.92
2022-10-05T21:31:43.593Z,4.45
2022-10-05T21:34:16.543Z,3.53
2022-10-05T21:36:45.057Z,3.60
2022-10-05T21:39:13.545Z,5.03
2022-10-05T21:41:43.368Z,3.83
2022-10-05T21:44:15.064Z,4.75
2022-10-05T21:46:43.801Z,3.08
2022-10-05T21:49:15.096Z,4.28
2022-10-05T21:51:52.766Z,3.30
2022-10-05T21:54:23.393Z,3.38
2022-10-05T21:56:54.158Z,5.03
2022-10-05T21:59:31.874Z,3.15
2022-10-05T22:02:01.116Z,4.68
2022-10-05T22:04:30.867Z,3.05
2022-10-05T22:06:59.853Z,3.60
2022-10-05T22:09:28.786Z,3.03
2022-10-05T22:11:58.028Z,3.40
2022-10-05T22:14:30.205Z,3.10
2022-10-05T22:16:58.911Z,2.38
2022-10-05T22:19:27.819Z,2.67
2022-10-05T22:21:56.514Z,2.15
2022-10-05T22:24:25.026Z,2.83
2022-10-05T22:26:54.228Z,2.88
2022-10-05T22:29:23.055Z,1.70
2022-10-05T22:31:53.473Z,2.13
2022-10-05T22:34:22.473Z,2.00
2022-10-05T22:36:52.259Z,3.85
2022-10-05T22:39:25.185Z,2.03
2022-10-05T22:41:55.359Z,2.22
2022-10-05T22:44:25.120Z,1.63
2022-10-05T22:46:58.014Z,1.65
2022-10-05T22:49:28.324Z,1.52
2022-10-05T22:52:18.535Z,1.55
2022-10-05T22:55:06.884Z,1.30
2022-10-05T22:57:45.575Z,2.38
2022-10-05T23:00:27.641Z,1.83
2022-10-05T23:03:01.474Z,1.70
2022-10-05T23:05:41.139Z,2.97
2022-10-05T23:08:26.870Z,2.10
2022-10-05T23:10:56.305Z,1.58
2022-10-05T23:13:24.992Z,1.95
2022-10-05T23:15:58.859Z,2.22
2022-10-05T23:18:41.048Z,2.33
2022-10-05T23:21:13.363Z,2.45
2022-10-05T23:23:47.672Z,1.75
2022-10-05T23:26:26.415Z,2.13
2022-10-05T23:28:56.480Z,1.55
2022-10-05T23:31:27.418Z,2.17
2022-10-05T23:33:57.739Z,2.22
2022-10-05T23:36:28.648Z,1.50
2022-10-05T23:38:57.228Z,1.80
2022-10-05T23:41:26.031Z,2.08
2022-10-05T23:44:37.103Z,3.10
2022-10-05T23:47:13.138Z,2.85
2022-10-05T23:49:44.024Z,2.00
2022-10-05T23:52:24.153Z,2.28
2022-10-05T23:54:56.696Z,2.33
2022-10-05T23:57:40.503Z,2.92
